Time;durP1;ratioP1;P1;durP2;ratioP2;P2;SDS_P1;SDS_P2;PMS_P1;PMS_P2;Temp;Humidity;BMP_temperature;BMP_pressure;BME280_temperature;BME280_humidity;BME280_pressure;Samples;Min_cycle;Max_cycle;Signal;HPM_P1;HPM_P2
2022/11/17 00:00:02;;;;;;;;;;;;;;;27.39;25.40;99576.13;4961020;29;1173;-16
2022/11/17 00:02:28;;;;;;;;;;;;;;;27.91;25.33;99577.16;4955801;29;1134;-16
2022/11/17 00:04:53;;;;;;;;;;;;;;;28.44;24.41;99581.38;4964170;28;1906;-17
2022/11/17 00:07:18;;;;;;;;;;;;;;;27.48;25.36;99582.09;4969085;28;1157;-17
2022/11/17 00:09:43;;;;;;;;;;;;;;;27.70;25.50;99584.50;4960582;29;1173;-17
2022/11/17 00:14:52;;;;;;;;;;;;;;;27.50;25.36;99583.53;4955975;28;1114;-16
2022/11/17 00:17:18;;;;;;;;;;;;;;;27.66;25.55;99575.97;4960300;29;1223;-17
2022/11/17 00:22:28;;;;;;;;;;;;;;;27.64;25.24;99586.19;4959888;29;1206;-16
2022/11/17 00:24:54;;;;;;;;;;;;;;;27.33;25.81;99582.34;4975007;28;1911;-17
2022/11/17 00:27:19;;;;;;;;;;;;;;;28.28;25.11;99582.69;4979238;28;901;-17
2022/11/17 00:29:44;;;;;;;;;;;;;;;27.71;25.38;99576.19;4979284;28;1098;-16
2022/11/17 00:35:16;;;;;;;;;;;;;;;28.37;25.29;99572.47;4919969;29;1230;-17
2022/11/17 00:40:25;;;;;;;;;;;;;;;27.45;25.75;99569.00;4953764;28;952;-17
2022/11/17 00:42:50;;;;;;;;;;;;;;;28.08;25.60;99567.47;4978958;28;1181;-17
2022/11/17 00:45:16;;;;;;;;;;;;;;;28.21;24.70;99560.31;4978887;28;1902;-16
2022/11/17 00:47:41;;;;;;;;;;;;;;;27.49;25.73;99559.44;4978849;28;1157;-16
2022/11/17 00:50:07;;;;;;;;;;;;;;;28.00;25.69;99559.59;4979107;28;1161;-17
2022/11/17 00:52:32;;;;;;;;;;;;;;;28.51;24.89;99559.66;4978292;28;1094;-16
2022/11/17 00:54:57;;;;;;;;;;;;;;;28.17;24.72;99556.38;4979163;28;1214;-16
2022/11/17 00:57:22;;;;;;;;;;;;;;;27.50;26.00;99553.84;4978819;28;1174;-17
2022/11/17 00:59:48;;;;;;;;;;;;;;;28.14;25.49;99554.94;4978904;28;1205;-16
2022/11/17 01:02:13;;;;;;;;;;;;;;;28.08;25.28;99550.41;4978602;28;1225;-16
2022/11/17 01:04:38;;;;;;;;;;;;;;;27.49;25.79;99544.06;4978407;28;1970;-17
2022/11/17 01:07:03;;;;;;;;;;;;;;;28.16;25.56;99549.31;4978521;28;1245;-17
2022/11/17 01:09:29;;;;;;;;;;;;;;;28.58;24.87;99537.97;4978511;28;1130;-16
2022/11/17 01:11:54;;;;;;;;;;;;;;;27.84;25.64;99544.75;4978440;28;1225;-17
2022/11/17 01:14:20;;;;;;;;;;;;;;;27.47;26.20;99545.31;4978517;28;1189;-16
2022/11/17 01:16:46;;;;;;;;;;;;;;;28.37;25.32;99540.03;4978273;28;944;-16
2022/11/17 01:19:12;;;;;;;;;;;;;;;27.75;25.54;99536.06;4978612;28;1189;-16
2022/11/17 01:21:37;;;;;;;;;;;;;;;27.52;26.59;99537.41;4978282;28;1276;-16
2022/11/17 01:24:02;;;;;;;;;;;;;;;28.43;25.18;99533.72;4978037;28;1903;-16
2022/11/17 01:26:29;;;;;;;;;;;;;;;28.23;25.17;99532.00;4977872;28;1169;-16
2022/11/17 01:28:54;;;;;;;;;;;;;;;27.57;26.33;99534.06;4984694;28;979;-16
2022/11/17 01:31:23;;;;;;;;;;;;;;;28.07;25.96;99529.84;4985485;28;1276;-16
2022/11/17 01:33:49;;;;;;;;;;;;;;;27.87;26.10;99523.53;4977968;28;1204;-17
2022/11/17 01:36:15;;;;;;;;;;;;;;;27.47;26.67;99521.03;4978077;28;1458;-16
2022/11/17 01:38:40;;;;;;;;;;;;;;;28.20;25.65;99518.91;4977905;28;1130;-16
2022/11/17 01:41:06;;;;;;;;;;;;;;;28.57;25.26;99515.50;4977602;28;1240;-16
2022/11/17 01:43:48;;;;;;;;;;;;;;;27.66;26.21;99513.84;4978272;28;1899;-17
2022/11/17 01:46:32;;;;;;;;;;;;;;;27.92;26.10;99500.41;4982694;28;1173;-17
2022/11/17 01:49:18;;;;;;;;;;;;;;;28.03;25.81;99494.28;4966438;28;1213;-17
2022/11/17 01:51:44;;;;;;;;;;;;;;;27.49;26.32;99500.84;4966534;28;1632;-17
2022/11/17 01:54:10;;;;;;;;;;;;;;;28.31;25.84;99495.72;4977531;28;1236;-16
2022/11/17 01:56:37;;;;;;;;;;;;;;;28.61;25.48;99491.53;4978001;28;1158;-17
2022/11/17 01:59:07;;;;;;;;;;;;;;;27.67;26.11;99491.19;4978275;28;1240;-16
2022/11/17 02:01:32;;;;;;;;;;;;;;;27.87;26.26;99491.09;4977438;28;1249;-17
2022/11/17 02:03:58;;;;;;;;;;;;;;;28.08;25.59;99490.94;4960323;28;1903;-16
2022/11/17 02:06:30;;;;;;;;;;;;;;;27.48;26.29;99485.69;4977505;28;1212;-16
2022/11/17 02:08:55;;;;;;;;;;;;;;;28.23;26.28;99493.31;4960499;28;1190;-16
2022/11/17 02:11:21;;;;;;;;;;;;;;;28.70;25.56;99484.78;4977778;28;1150;-17
2022/11/17 02:13:46;;;;;;;;;;;;;;;27.72;26.62;99477.91;4978069;28;1178;-15
2022/11/17 02:16:12;;;;;;;;;;;;;;;27.80;26.57;99478.66;4977373;28;1224;-17
2022/11/17 02:18:37;;;;;;;;;;;;;;;28.27;25.48;99472.06;4963850;28;1150;-17
2022/11/17 02:21:12;;;;;;;;;;;;;;;27.62;26.39;99478.34;4977548;28;1220;-17
2022/11/17 02:23:40;;;;;;;;;;;;;;;28.18;26.23;99476.91;4977085;28;1915;-18
2022/11/17 02:26:05;;;;;;;;;;;;;;;28.62;25.58;99473.41;4977956;28;1141;-17
2022/11/17 02:28:35;;;;;;;;;;;;;;;27.69;26.66;99474.81;4977096;28;1220;-17
2022/11/17 02:31:09;;;;;;;;;;;;;;;27.68;26.34;99476.66;4959039;28;1351;-17
2022/11/17 02:33:51;;;;;;;;;;;;;;;27.49;26.89;99473.84;4972046;28;1003;-16
2022/11/17 02:36:18;;;;;;;;;;;;;;;27.47;27.01;99475.94;4965752;28;1181;-16
2022/11/17 02:38:55;;;;;;;;;;;;;;;28.32;26.10;99477.63;4961214;28;1178;-17
2022/11/17 02:41:32;;;;;;;;;;;;;;;28.55;25.80;99479.72;4964291;28;1000;-17
2022/11/17 02:44:03;;;;;;;;;;;;;;;27.81;26.28;99477.63;4963841;28;1907;-17
2022/11/17 02:46:44;;;;;;;;;;;;;;;27.61;27.09;99482.06;4980899;28;1169;-17
2022/11/17 02:49:12;;;;;;;;;;;;;;;27.45;27.01;99469.09;4981242;28;1193;-16
2022/11/17 02:51:37;;;;;;;;;;;;;;;27.37;26.52;99475.56;4961574;28;1782;-17
2022/11/17 02:54:03;;;;;;;;;;;;;;;28.15;26.59;99472.78;4960664;28;1058;-17
2022/11/17 02:56:28;;;;;;;;;;;;;;;28.52;25.79;99461.25;4980944;28;1138;-17
2022/11/17 02:58:55;;;;;;;;;;;;;;;28.06;25.96;99457.91;4980712;28;1149;-17
2022/11/17 03:01:20;;;;;;;;;;;;;;;27.58;26.47;99449.25;4963800;28;1236;-16
2022/11/17 03:03:55;;;;;;;;;;;;;;;28.32;26.08;99456.00;4980733;28;1915;-17
2022/11/17 03:06:25;;;;;;;;;;;;;;;27.63;26.53;99461.09;4980926;28;1161;-16
2022/11/17 03:08:58;;;;;;;;;;;;;;;27.81;26.62;99448.72;4963287;28;1153;-16
2022/11/17 03:11:27;;;;;;;;;;;;;;;28.50;25.61;99448.97;4980681;28;1196;-17
2022/11/17 03:13:52;;;;;;;;;;;;;;;27.79;26.22;99445.44;4963665;28;1205;-16
2022/11/17 03:16:24;;;;;;;;;;;;;;;27.48;26.43;99438.94;4980081;28;1166;-16
2022/11/17 03:19:06;;;;;;;;;;;;;;;28.41;26.00;99432.22;4980279;28;1224;-17
2022/11/17 03:21:36;;;;;;;;;;;;;;;27.81;26.21;99419.00;4963129;28;1167;-17
2022/11/17 03:24:03;;;;;;;;;;;;;;;27.53;26.65;99420.22;4962966;28;1973;-17
2022/11/17 03:26:32;;;;;;;;;;;;;;;28.39;25.82;99424.34;4963050;28;1205;-16
2022/11/17 03:28:57;;;;;;;;;;;;;;;28.21;25.55;99419.72;4962860;28;903;-16
2022/11/17 03:31:23;;;;;;;;;;;;;;;27.56;26.39;99417.06;4963345;28;1182;-16
2022/11/17 03:33:48;;;;;;;;;;;;;;;28.15;26.26;99420.56;4980356;28;1169;-17
2022/11/17 03:36:14;;;;;;;;;;;;;;;28.24;25.54;99421.97;4980513;28;1165;-17
2022/11/17 03:38:42;;;;;;;;;;;;;;;27.60;26.13;99422.88;4962309;28;1118;-17
2022/11/17 03:41:08;;;;;;;;;;;;;;;28.07;26.14;99417.13;4980142;28;1115;-17
2022/11/17 03:43:33;;;;;;;;;;;;;;;28.59;25.41;99413.28;4980855;28;1966;-17
2022/11/17 03:46:01;;;;;;;;;;;;;;;27.87;25.72;99409.19;4962455;28;1162;-17
2022/11/17 03:48:26;;;;;;;;;;;;;;;27.51;26.31;99411.50;4962770;28;1221;-17
2022/11/17 03:50:54;;;;;;;;;;;;;;;28.41;25.78;99403.28;4979302;28;1205;-17
2022/11/17 03:53:20;;;;;;;;;;;;;;;27.69;26.01;99402.69;4962111;28;964;-16
2022/11/17 03:55:45;;;;;;;;;;;;;;;27.54;27.02;99396.75;4980474;28;1197;-17
2022/11/17 03:58:14;;;;;;;;;;;;;;;28.42;25.61;99385.19;4979759;28;1142;-19
2022/11/17 04:00:39;;;;;;;;;;;;;;;28.03;25.41;99396.19;4979475;28;1182;-18
2022/11/17 04:03:04;;;;;;;;;;;;;;;26.70;27.56;99390.31;4979794;28;1384;-19
2022/11/17 04:05:30;;;;;;;;;;;;;;;26.27;28.15;99390.63;4979830;28;1962;-20
2022/11/17 04:07:55;;;;;;;;;;;;;;;25.25;29.03;99386.22;4979757;28;1153;-19
2022/11/17 04:10:21;;;;;;;;;;;;;;;25.04;29.55;99396.91;4979326;28;1165;-19
2022/11/17 04:18:14;;;;;;;;;;;;;;;24.25;30.74;99391.75;4977981;28;1299;-20
2022/11/17 04:20:40;;;;;;;;;;;;;;;24.15;30.79;99397.44;4979497;28;1054;-20
2022/11/17 04:23:06;;;;;;;;;;;;;;;23.84;31.19;99394.09;4979147;28;1161;-20
2022/11/17 04:31:00;;;;;;;;;;;;;;;23.69;31.59;99380.75;4978789;28;1113;-19
2022/11/17 04:33:25;;;;;;;;;;;;;;;23.56;31.87;99381.47;4979464;28;1015;-19
2022/11/17 04:35:50;;;;;;;;;;;;;;;23.48;31.84;99381.59;4979116;28;1126;-19
2022/11/17 04:38:16;;;;;;;;;;;;;;;23.44;32.04;99383.03;4978999;28;1171;-19
2022/11/17 04:41:52;;;;;;;;;;;;;;;23.34;32.50;99385.97;4978893;28;1162;-20
2022/11/17 04:43:26;;;;;;;;;;;;;;;24.18;31.26;99382.81;4979249;28;1289;-19
2022/11/17 04:45:56;;;;;;;;;;;;;;;25.01;29.95;99383.88;4978923;28;1910;-19
2022/11/17 04:48:21;;;;;;;;;;;;;;;25.34;29.34;99386.84;4979528;28;1181;-19
2022/11/17 04:50:47;;;;;;;;;;;;;;;25.42;29.18;99389.34;4978625;28;1205;-18
2022/11/17 04:53:12;;;;;;;;;;;;;;;26.19;27.90;99398.09;4978027;28;1458;-20
2022/11/17 04:55:37;;;;;;;;;;;;;;;26.71;27.46;99403.56;4979077;28;1209;-19
2022/11/17 04:58:03;;;;;;;;;;;;;;;26.97;26.80;99395.59;4977983;28;1169;-19
2022/11/17 05:00:28;;;;;;;;;;;;;;;27.21;26.39;99399.44;4978038;28;1134;-19
2022/11/17 05:02:53;;;;;;;;;;;;;;;27.48;26.05;99395.72;4977384;28;1385;-19
2022/11/17 05:05:18;;;;;;;;;;;;;;;27.62;26.06;99399.19;4978422;28;1899;-18
2022/11/17 05:07:44;;;;;;;;;;;;;;;26.43;27.82;99393.06;4978429;28;1209;-18
2022/11/17 05:10:12;;;;;;;;;;;;;;;25.74;29.16;99388.78;4977288;28;1122;-18
2022/11/17 05:17:03;;;;;;;;;;;;;;;25.70;29.55;99384.84;4966086;28;929;-18
2022/11/17 05:18:06;;;;;;;;;;;;;;;26.77;28.23;99381.16;4977974;28;1224;-20
2022/11/17 05:20:32;;;;;;;;;;;;;;;26.67;27.99;99377.25;4977057;28;1192;-20
2022/11/17 05:25:41;;;;;;;;;;;;;;;26.34;28.85;99373.63;4966818;28;1963;-19
2022/11/17 05:28:06;;;;;;;;;;;;;;;26.14;29.35;99369.88;4976999;28;1134;-20
2022/11/17 05:30:31;;;;;;;;;;;;;;;25.89;29.81;99369.72;4976778;28;1256;-20
2022/11/17 05:32:57;;;;;;;;;;;;;;;26.35;29.16;99370.72;4976453;28;1580;-20
2022/11/17 05:35:22;;;;;;;;;;;;;;;26.09;29.23;99363.47;4977575;28;1446;-20
2022/11/17 05:37:47;;;;;;;;;;;;;;;25.86;29.95;99365.56;4977400;28;1225;-20
2022/11/17 05:40:13;;;;;;;;;;;;;;;26.61;28.59;99365.47;4978257;28;1165;-20
2022/11/17 05:42:38;;;;;;;;;;;;;;;26.98;28.27;99362.16;4977810;28;1189;-19
2022/11/17 05:45:03;;;;;;;;;;;;;;;26.34;29.08;99365.53;4977646;28;1959;-19
2022/11/17 05:47:28;;;;;;;;;;;;;;;26.08;29.19;99361.81;4978226;28;1125;-19
2022/11/17 05:49:54;;;;;;;;;;;;;;;26.58;29.09;99347.81;4977798;28;1477;-20
2022/11/17 05:52:19;;;;;;;;;;;;;;;26.16;29.30;99354.34;4977637;28;980;-19
2022/11/17 05:54:44;;;;;;;;;;;;;;;26.12;29.77;99344.19;4977463;28;1130;-19
2022/11/17 05:57:14;;;;;;;;;;;;;;;26.90;28.39;99360.53;4977780;28;1158;-19
2022/11/17 05:59:39;;;;;;;;;;;;;;;26.85;28.39;99363.06;4977436;28;1158;-19
2022/11/17 06:02:19;;;;;;;;;;;;;;;26.23;29.58;99372.34;4977713;28;1161;-19
2022/11/17 06:04:45;;;;;;;;;;;;;;;26.40;29.42;99365.53;4976973;28;1894;-19
2022/11/17 06:07:10;;;;;;;;;;;;;;;26.46;29.27;99363.03;4960228;28;1206;-19
2022/11/17 06:09:36;;;;;;;;;;;;;;;26.12;29.59;99354.97;4977578;28;1153;-19
2022/11/17 06:12:01;;;;;;;;;;;;;;;26.69;28.84;99353.59;4977392;28;1185;-19
2022/11/17 06:14:26;;;;;;;;;;;;;;;27.09;28.53;99352.59;4977388;28;1130;-19
2022/11/17 06:16:55;;;;;;;;;;;;;;;26.23;29.23;99338.16;4977356;28;1082;-19
2022/11/17 06:19:21;;;;;;;;;;;;;;;26.03;29.70;99333.63;4976431;28;1576;-19
2022/11/17 06:21:47;;;;;;;;;;;;;;;26.57;29.03;99330.00;4966898;28;1169;-18
2022/11/17 06:24:12;;;;;;;;;;;;;;;26.14;29.70;99329.47;4958887;28;1973;-18
2022/11/17 06:26:38;;;;;;;;;;;;;;;26.34;29.63;99339.38;4976101;28;1114;-18
2022/11/17 06:29:04;;;;;;;;;;;;;;;27.04;28.39;99347.84;4959239;28;1100;-19
2022/11/17 06:31:31;;;;;;;;;;;;;;;26.69;28.64;99340.94;4974332;28;1145;-19
2022/11/17 06:33:56;;;;;;;;;;;;;;;26.35;29.37;99332.13;4977482;28;1130;-19
2022/11/17 06:36:21;;;;;;;;;;;;;;;26.90;28.75;99325.47;4958397;28;1168;-18
2022/11/17 06:38:47;;;;;;;;;;;;;;;26.70;29.04;99328.25;4977047;28;1073;-19
2022/11/17 06:41:12;;;;;;;;;;;;;;;26.51;29.44;99325.44;4976679;28;1114;-18
2022/11/17 06:43:37;;;;;;;;;;;;;;;26.53;29.44;99324.19;4977269;28;1906;-17
2022/11/17 06:46:03;;;;;;;;;;;;;;;26.46;29.36;99331.47;4971003;28;1533;-19
2022/11/17 06:48:28;;;;;;;;;;;;;;;26.71;29.36;99322.66;4973319;28;1151;-16
2022/11/17 06:50:54;;;;;;;;;;;;;;;26.65;29.10;99323.53;4976964;28;1130;-18
2022/11/17 06:53:19;;;;;;;;;;;;;;;26.63;29.51;99321.03;4976640;28;936;-16
2022/11/17 06:55:58;;;;;;;;;;;;;;;26.97;29.00;99323.56;4976785;28;1174;-18
2022/11/17 06:58:24;;;;;;;;;;;;;;;26.74;29.30;99319.53;4977057;28;1181;-18
2022/11/17 07:00:49;;;;;;;;;;;;;;;26.47;29.69;99318.81;4976689;28;1126;-30
2022/11/17 07:03:14;;;;;;;;;;;;;;;26.74;29.19;99321.41;4975038;28;987;-31
2022/11/17 07:05:40;;;;;;;;;;;;;;;26.55;29.75;99320.44;4975875;28;1967;-30
2022/11/17 07:08:05;;;;;;;;;;;;;;;26.50;29.50;99308.44;4977166;28;1209;-27
2022/11/17 07:10:31;;;;;;;;;;;;;;;26.75;29.62;99307.69;4976658;28;1039;-32
2022/11/17 07:12:56;;;;;;;;;;;;;;;26.60;30.03;99302.59;4974028;28;1188;-30
2022/11/17 07:15:21;;;;;;;;;;;;;;;26.63;30.07;99298.63;4973602;28;1564;-31
2022/11/17 07:17:47;;;;;;;;;;;;;;;26.85;29.18;99291.03;4975988;28;1271;-32
2022/11/17 07:20:12;;;;;;;;;;;;;;;26.80;29.65;99298.13;4975261;28;1204;-31
2022/11/17 07:22:37;;;;;;;;;;;;;;;26.76;29.68;99295.03;4975104;28;1513;-32
2022/11/17 07:25:03;;;;;;;;;;;;;;;26.99;29.31;99291.78;4978072;28;1899;-30
2022/11/17 07:27:29;;;;;;;;;;;;;;;27.07;29.40;99289.91;4980317;28;1130;-33
2022/11/17 07:29:54;;;;;;;;;;;;;;;27.13;29.14;99281.75;4978952;28;1516;-31
2022/11/17 07:32:20;;;;;;;;;;;;;;;27.18;28.90;99278.38;4977716;28;1275;-33
2022/11/17 07:34:45;;;;;;;;;;;;;;;27.24;28.58;99276.69;4977339;28;1181;-31
2022/11/17 07:37:10;;;;;;;;;;;;;;;27.26;28.76;99274.59;4979457;28;1212;-33
2022/11/17 07:39:36;;;;;;;;;;;;;;;27.30;29.01;99269.56;4979746;28;1209;-30
2022/11/17 07:42:01;;;;;;;;;;;;;;;27.31;28.67;99272.06;4979579;28;1225;-33
2022/11/17 07:44:26;;;;;;;;;;;;;;;27.34;28.67;99268.91;4978736;28;1894;-31
2022/11/17 07:46:51;;;;;;;;;;;;;;;27.40;28.47;99261.81;4979764;28;1232;-31
2022/11/17 07:49:17;;;;;;;;;;;;;;;27.48;28.59;99269.63;4979485;28;1229;-32
2022/11/17 07:51:42;;;;;;;;;;;;;;;27.53;28.28;99266.25;4979899;28;1265;-32
2022/11/17 07:54:07;;;;;;;;;;;;;;;27.56;28.30;99255.00;4979618;28;1245;-31
2022/11/17 07:56:33;;;;;;;;;;;;;;;27.51;28.94;99261.09;4977543;28;1150;-33
2022/11/17 07:58:58;;;;;;;;;;;;;;;27.78;28.03;99243.00;4978296;28;1193;-32
2022/11/17 08:01:26;;;;;;;;;;;;;;;28.07;27.74;99254.09;4978272;28;1066;-28
2022/11/17 08:03:51;;;;;;;;;;;;;;;28.16;27.62;99255.44;4978083;28;1934;-29
2022/11/17 08:06:16;;;;;;;;;;;;;;;27.92;28.46;99251.78;4979358;28;1156;-30
2022/11/17 08:08:42;;;;;;;;;;;;;;;27.93;28.51;99246.16;4976558;28;1134;-33
2022/11/17 08:11:08;;;;;;;;;;;;;;;27.91;28.24;99242.03;4977030;28;1173;-31
2022/11/17 08:13:34;;;;;;;;;;;;;;;28.00;27.91;99251.47;4977135;28;1136;-31
2022/11/17 08:15:59;;;;;;;;;;;;;;;27.98;28.41;99249.00;4977656;28;1205;-30
2022/11/17 08:18:24;;;;;;;;;;;;;;;27.95;28.41;99246.75;4979072;28;1007;-29
2022/11/17 08:20:50;;;;;;;;;;;;;;;27.79;28.73;99237.38;4978522;28;1165;-29
2022/11/17 08:23:15;;;;;;;;;;;;;;;27.63;29.66;99239.56;4976180;28;1297;-32
2022/11/17 08:25:41;;;;;;;;;;;;;;;27.68;29.43;99236.22;4976250;28;1903;-28
2022/11/17 08:28:06;;;;;;;;;;;;;;;27.69;28.97;99229.78;4978076;28;1226;-29
2022/11/17 08:30:34;;;;;;;;;;;;;;;27.75;28.87;99239.69;4977860;28;1284;-31
2022/11/17 08:32:59;;;;;;;;;;;;;;;27.85;28.48;99244.56;4978196;28;1209;-29
2022/11/17 08:35:25;;;;;;;;;;;;;;;27.93;28.28;99242.59;4977154;28;1174;-33
2022/11/17 08:37:50;;;;;;;;;;;;;;;27.89;28.59;99246.81;4976088;28;1303;-29
2022/11/17 08:40:19;;;;;;;;;;;;;;;27.84;28.75;99250.22;4978088;28;1154;-30
2022/11/17 08:42:44;;;;;;;;;;;;;;;27.89;28.46;99239.56;4977898;28;947;-30
2022/11/17 08:45:10;;;;;;;;;;;;;;;27.98;28.58;99251.69;4978049;28;1957;-32
2022/11/17 08:47:35;;;;;;;;;;;;;;;28.16;28.82;99244.63;4978516;28;1166;-32
2022/11/17 08:50:00;;;;;;;;;;;;;;;27.97;28.46;99236.56;4977622;28;1157;-34
2022/11/17 08:52:26;;;;;;;;;;;;;;;27.86;28.95;99240.00;4977590;28;1169;-31
2022/11/17 08:54:51;;;;;;;;;;;;;;;27.81;29.21;99237.97;4977285;28;1162;-30
2022/11/17 08:57:17;;;;;;;;;;;;;;;27.73;29.04;99239.09;4969083;28;1364;-30
2022/11/17 08:59:42;;;;;;;;;;;;;;;27.58;29.64;99231.31;4967870;28;1217;-32
2022/11/17 09:02:10;;;;;;;;;;;;;;;27.53;29.28;99233.84;4977335;28;1126;-33
2022/11/17 09:04:35;;;;;;;;;;;;;;;27.31;29.73;99234.25;4961836;28;1956;-32
2022/11/17 09:07:00;;;;;;;;;;;;;;;27.16;30.08;99229.19;4978340;28;1141;-33
2022/11/17 09:09:25;;;;;;;;;;;;;;;27.28;29.98;99223.09;4977212;28;1134;-30
2022/11/17 09:11:51;;;;;;;;;;;;;;;27.16;30.42;99215.69;4977734;28;1040;-32
2022/11/17 09:14:16;;;;;;;;;;;;;;;27.09;30.75;99214.94;4978112;28;1110;-27
2022/11/17 09:16:41;;;;;;;;;;;;;;;27.21;30.46;99209.66;4989429;28;1188;-30
2022/11/17 09:19:06;;;;;;;;;;;;;;;27.16;29.93;99201.38;4974764;28;1164;-31
2022/11/17 09:21:32;;;;;;;;;;;;;;;26.94;29.67;99182.84;4973902;28;1484;-28
2022/11/17 09:23:58;;;;;;;;;;;;;;;27.14;29.46;99180.03;4977918;28;1971;-32
2022/11/17 09:26:24;;;;;;;;;;;;;;;26.89;29.42;99197.00;4977751;28;1173;-31
2022/11/17 09:28:50;;;;;;;;;;;;;;;26.77;29.31;99186.09;4973947;28;1133;-30
2022/11/17 09:31:16;;;;;;;;;;;;;;;26.93;29.46;99191.97;4974556;28;1177;-31
2022/11/17 09:33:42;;;;;;;;;;;;;;;26.76;29.63;99184.41;4976585;28;1192;-31
2022/11/17 09:36:07;;;;;;;;;;;;;;;26.71;30.52;99189.69;4976857;28;1141;-32
2022/11/17 09:38:33;;;;;;;;;;;;;;;26.86;30.21;99190.16;4976955;28;1090;-32
2022/11/17 09:40:58;;;;;;;;;;;;;;;26.58;30.19;99175.22;4976448;28;1114;-29
2022/11/17 09:43:27;;;;;;;;;;;;;;;26.50;30.22;99208.69;4976120;28;1146;-27
2022/11/17 09:46:02;;;;;;;;;;;;;;;26.61;30.50;99222.53;4967292;28;1914;-28
2022/11/17 09:48:35;;;;;;;;;;;;;;;26.44;30.78;99214.94;4946320;28;1213;-32
2022/11/17 09:51:01;;;;;;;;;;;;;;;26.71;30.27;99224.75;4965031;28;1143;-28
2022/11/17 09:53:35;;;;;;;;;;;;;;;26.44;30.78;99227.59;4976077;28;907;-32
2022/11/17 09:56:01;;;;;;;;;;;;;;;26.36;31.23;99239.44;4975695;28;1018;-26
2022/11/17 09:58:32;;;;;;;;;;;;;;;26.47;30.99;99241.47;4959281;28;1181;-27
2022/11/17 10:00:58;;;;;;;;;;;;;;;26.55;31.16;99247.63;4977184;28;1139;-32
2022/11/17 10:03:31;;;;;;;;;;;;;;;26.95;30.51;99246.56;4976865;28;1145;-27
2022/11/17 10:05:57;;;;;;;;;;;;;;;26.47;31.14;99243.31;4959719;28;1903;-33
2022/11/17 10:08:32;;;;;;;;;;;;;;;26.40;31.39;99236.09;4959373;28;1210;-33
2022/11/17 10:10:58;;;;;;;;;;;;;;;26.59;31.58;99230.00;4976667;28;1220;-31
2022/11/17 10:13:30;;;;;;;;;;;;;;;26.43;31.98;99232.13;4976961;28;1145;-28
2022/11/17 10:16:05;;;;;;;;;;;;;;;26.77;31.60;99238.19;4959421;28;1157;-26
2022/11/17 10:18:31;;;;;;;;;;;;;;;26.48;31.84;99235.03;4959244;28;1161;-32
2022/11/17 10:20:56;;;;;;;;;;;;;;;26.46;31.78;99236.28;4958932;28;985;-30
2022/11/17 10:23:22;;;;;;;;;;;;;;;26.52;32.13;99249.75;4976087;28;1249;-29
2022/11/17 10:25:48;;;;;;;;;;;;;;;26.34;32.75;99252.31;4974996;28;1985;-33
2022/11/17 10:28:31;;;;;;;;;;;;;;;26.59;31.92;99246.97;4959293;28;1386;-32
2022/11/17 10:31:04;;;;;;;;;;;;;;;26.36;33.01;99236.75;4957492;28;1218;-28
2022/11/17 10:33:32;;;;;;;;;;;;;;;26.72;31.82;99231.78;4976317;28;1070;-28
2022/11/17 10:35:57;;;;;;;;;;;;;;;26.43;31.30;99245.63;4975480;28;1660;-29
2022/11/17 10:38:23;;;;;;;;;;;;;;;26.27;32.45;99257.69;4961618;28;1102;-28
2022/11/17 10:40:49;;;;;;;;;;;;;;;26.53;31.49;99261.34;4958469;28;1250;-27
2022/11/17 10:43:15;;;;;;;;;;;;;;;26.37;32.00;99255.41;4975444;28;1308;-31
2022/11/17 10:45:50;;;;;;;;;;;;;;;26.73;31.67;99255.84;4975995;28;1902;-28
2022/11/17 10:48:21;;;;;;;;;;;;;;;26.48;32.32;99253.06;4974483;28;1201;-28
2022/11/17 10:50:57;;;;;;;;;;;;;;;26.43;32.02;99259.09;4975344;28;1230;-31
2022/11/17 10:53:32;;;;;;;;;;;;;;;26.61;31.56;99254.88;4973367;28;1273;-30
2022/11/17 10:56:02;;;;;;;;;;;;;;;26.34;32.02;99246.91;4975193;28;1221;-30
2022/11/17 10:58:28;;;;;;;;;;;;;;;26.74;31.56;99245.88;4948277;28;1201;-30
2022/11/17 11:01:02;;;;;;;;;;;;;;;26.43;31.79;99245.63;4985076;28;1406;-32
2022/11/17 11:03:28;;;;;;;;;;;;;;;26.63;31.98;99244.69;4979124;28;1057;-27
2022/11/17 11:05:54;;;;;;;;;;;;;;;26.57;32.17;99235.59;4979860;28;1899;-30
2022/11/17 11:08:23;;;;;;;;;;;;;;;25.78;32.30;99134.16;4978034;28;1489;-32
2022/11/17 11:10:49;;;;;;;;;;;;;;;26.71;31.60;99235.53;4977126;28;1254;-30
2022/11/17 11:13:21;;;;;;;;;;;;;;;26.38;31.94;99237.34;4957523;28;1295;-29
2022/11/17 11:15:47;;;;;;;;;;;;;;;26.63;32.01;99229.34;4972551;28;1541;-31
2022/11/17 11:18:16;;;;;;;;;;;;;;;26.37;32.65;99223.06;4971296;28;1270;-29
2022/11/17 11:20:53;;;;;;;;;;;;;;;26.38;32.49;99219.31;4973640;28;1422;-28
2022/11/17 11:23:30;;;;;;;;;;;;;;;26.63;32.01;99218.56;4969985;28;1287;-28
2022/11/17 11:26:14;;;;;;;;;;;;;;;26.45;32.43;99213.88;4975509;28;1979;-31
2022/11/17 11:28:39;;;;;;;;;;;;;;;26.71;32.04;99208.56;4977847;28;1214;-34
2022/11/17 11:31:23;;;;;;;;;;;;;;;26.46;32.47;99210.13;4975860;28;1204;-30
2022/11/17 11:33:49;;;;;;;;;;;;;;;26.63;32.22;99206.91;4974002;28;1343;-31
2022/11/17 11:36:33;;;;;;;;;;;;;;;26.51;32.17;99214.88;4961586;28;1056;-27
2022/11/17 11:39:01;;;;;;;;;;;;;;;26.41;32.17;99210.78;4977496;28;1035;-30
2022/11/17 11:41:34;;;;;;;;;;;;;;;26.64;31.69;99206.69;4975422;28;1260;-30
2022/11/17 11:44:18;;;;;;;;;;;;;;;26.35;32.51;99200.88;4977105;28;1890;-32
2022/11/17 11:46:49;;;;;;;;;;;;;;;26.63;32.32;99198.84;4978377;28;1130;-30
2022/11/17 11:49:33;;;;;;;;;;;;;;;26.33;32.72;99192.16;4975434;28;1246;-31
2022/11/17 11:51:58;;;;;;;;;;;;;;;26.63;32.37;99191.56;4976228;28;1250;-30
2022/11/17 11:54:31;;;;;;;;;;;;;;;26.39;32.13;99191.28;4975840;28;1284;-29
2022/11/17 11:56:57;;;;;;;;;;;;;;;26.28;32.23;99184.69;4978098;28;1162;-30
2022/11/17 11:59:44;;;;;;;;;;;;;;;26.56;32.45;99185.38;4976618;28;1183;-30
2022/11/17 12:02:12;;;;;;;;;;;;;;;26.20;32.14;99168.78;4977755;28;1155;-29
2022/11/17 12:04:38;;;;;;;;;;;;;;;26.71;31.89;99173.50;4978562;28;1902;-32
2022/11/17 12:07:14;;;;;;;;;;;;;;;26.38;32.40;99175.34;4977993;28;1246;-29
2022/11/17 12:09:39;;;;;;;;;;;;;;;26.65;32.19;99170.63;4958405;28;924;-27
2022/11/17 12:12:06;;;;;;;;;;;;;;;26.44;32.56;99165.56;4978649;28;1134;-32
2022/11/17 12:14:35;;;;;;;;;;;;;;;26.38;32.14;99172.66;4971151;28;1158;-32
2022/11/17 12:17:03;;;;;;;;;;;;;;;26.60;31.99;99170.44;4977895;28;1272;-31
2022/11/17 12:19:41;;;;;;;;;;;;;;;26.44;32.63;99185.28;4977784;28;1205;-29
2022/11/17 12:22:06;;;;;;;;;;;;;;;26.81;32.13;99189.19;4978915;28;1075;-33
2022/11/17 12:24:36;;;;;;;;;;;;;;;26.51;32.54;99188.75;4977797;28;1958;-30
2022/11/17 12:27:20;;;;;;;;;;;;;;;26.48;32.66;99188.34;4978898;28;1110;-29
2022/11/17 12:29:46;;;;;;;;;;;;;;;26.53;32.16;99191.22;4968379;28;1201;-32
2022/11/17 12:32:11;;;;;;;;;;;;;;;26.42;32.44;99179.28;4967006;28;1133;-31
2022/11/17 12:34:36;;;;;;;;;;;;;;;26.67;32.47;99181.19;4965506;28;1283;-32
2022/11/17 12:37:11;;;;;;;;;;;;;;;26.48;32.66;99188.34;4969602;28;1219;-33
2022/11/17 12:39:50;;;;;;;;;;;;;;;26.73;32.77;99182.16;4977061;28;1258;-27
2022/11/17 12:42:15;;;;;;;;;;;;;;;26.51;32.43;99186.03;4973672;28;1166;-26
2022/11/17 12:44:42;;;;;;;;;;;;;;;26.43;32.99;99186.31;4976255;28;1972;-31
2022/11/17 12:47:24;;;;;;;;;;;;;;;26.61;32.40;99196.34;4960810;28;1269;-29
2022/11/17 12:49:58;;;;;;;;;;;;;;;26.35;32.98;99200.03;4978947;28;1138;-29
2022/11/17 12:52:36;;;;;;;;;;;;;;;26.72;32.31;99197.53;4976569;28;1229;-27
2022/11/17 12:55:21;;;;;;;;;;;;;;;26.38;32.52;99202.28;4977981;28;1194;-31
2022/11/17 12:57:48;;;;;;;;;;;;;;;26.82;32.34;99202.44;4974653;28;1671;-25
2022/11/17 13:00:16;;;;;;;;;;;;;;;26.43;32.70;99215.97;4960331;28;1163;-28
2022/11/17 13:02:57;;;;;;;;;;;;;;;26.44;32.95;99212.25;4984662;28;1062;-29
2022/11/17 13:05:26;;;;;;;;;;;;;;;26.48;32.88;99215.31;4976882;28;1961;-25
2022/11/17 13:08:10;;;;;;;;;;;;;;;26.34;32.83;99203.78;4976402;28;1189;-28
2022/11/17 13:10:35;;;;;;;;;;;;;;;26.60;32.21;99210.06;4977052;28;1150;-28
2022/11/17 13:13:15;;;;;;;;;;;;;;;26.36;32.65;99216.00;4977360;28;1371;-29
2022/11/17 13:15:41;;;;;;;;;;;;;;;26.67;32.80;99218.09;4977666;28;1130;-30
2022/11/17 13:18:10;;;;;;;;;;;;;;;26.47;32.71;99227.16;4959898;28;1150;-27
2022/11/17 13:20:35;;;;;;;;;;;;;;;26.33;32.40;99227.22;4961289;28;1423;-29
2022/11/17 13:23:01;;;;;;;;;;;;;;;26.62;32.07;99216.06;4959489;28;1389;-28
2022/11/17 13:25:26;;;;;;;;;;;;;;;26.42;32.77;99225.09;4976618;28;1926;-29
2022/11/17 13:27:51;;;;;;;;;;;;;;;26.81;32.10;99222.38;4976995;28;1344;-28